Time;durP1;ratioP1;P1;durP2;ratioP2;P2;SDS_P1;SDS_P2;PMS_P1;PMS_P2;Temp;Humidity;BMP_temperature;BMP_pressure;BME280_temperature;BME280_humidity;BME280_pressure;Samples;Min_cycle;Max_cycle;Signal;HPM_P1;HPM_P2
2022/04/19 00:02:53;;;;;;;4.55;3.60;;;;;;;;;;10514470;28;20059;-79
2022/04/19 00:07:56;;;;;;;6.97;5.03;;;;;;;;;;10491058;28;20563;-79
2022/04/19 00:12:57;;;;;;;7.20;5.88;;;;;;;;;;10479620;28;20056;-79
2022/04/19 00:17:59;;;;;;;6.28;5.22;;;;;;;;;;10490406;28;20048;-78
2022/04/19 00:23:00;;;;;;;4.90;4.13;;;;;;;;;;10472557;28;20045;-79
2022/04/19 00:28:01;;;;;;;4.80;4.28;;;;;;;;;;10468782;28;20067;-79
2022/04/19 00:33:02;;;;;;;6.53;5.60;;;;;;;;;;10469166;28;20041;-80
2022/04/19 00:38:05;;;;;;;6.15;5.55;;;;;;;;;;10472287;28;20075;-78
2022/04/19 00:43:09;;;;;;;6.50;5.05;;;;;;;;;;10478385;28;20194;-79
2022/04/19 00:48:10;;;;;;;7.13;5.15;;;;;;;;;;10478544;28;20051;-78
2022/04/19 00:53:11;;;;;;;6.82;5.82;;;;;;;;;;10468184;28;20041;-78
2022/04/19 00:58:13;;;;;;;6.70;5.68;;;;;;;;;;10439404;28;20050;-77
2022/04/19 01:03:22;;;;;;;6.68;4.88;;;;;;;;;;10458709;28;20181;-79
2022/04/19 01:08:25;;;;;;;6.13;5.53;;;;;;;;;;10454108;28;20059;-77
2022/04/19 01:13:26;;;;;;;5.40;4.90;;;;;;;;;;10497979;28;20091;-77
2022/04/19 01:18:29;;;;;;;4.93;4.40;;;;;;;;;;10443491;28;20051;-78
2022/04/19 01:23:34;;;;;;;4.90;4.40;;;;;;;;;;10470557;28;20048;-78
2022/04/19 01:28:35;;;;;;;4.80;4.30;;;;;;;;;;10460936;28;20060;-78
2022/04/19 01:33:36;;;;;;;8.90;4.90;;;;;;;;;;10516532;28;20051;-78
2022/04/19 01:38:41;;;;;;;5.75;3.80;;;;;;;;;;10493261;28;20044;-78
2022/04/19 01:43:44;;;;;;;5.55;4.50;;;;;;;;;;10514045;28;20093;-79
2022/04/19 01:48:45;;;;;;;5.70;4.47;;;;;;;;;;10531552;28;20052;-79
2022/04/19 01:53:49;;;;;;;5.82;5.07;;;;;;;;;;10520001;28;20048;-77
2022/04/19 01:58:53;;;;;;;4.07;3.75;;;;;;;;;;10529596;28;20087;-79
2022/04/19 02:04:01;;;;;;;6.32;5.30;;;;;;;;;;10500980;28;20025;-79
2022/04/19 02:09:06;;;;;;;6.18;4.72;;;;;;;;;;10509234;28;20056;-77
2022/04/19 02:14:07;;;;;;;7.20;5.57;;;;;;;;;;10477905;28;20181;-79
2022/04/19 02:19:11;;;;;;;6.03;5.13;;;;;;;;;;10426513;28;20048;-78
2022/04/19 02:24:15;;;;;;;6.07;5.47;;;;;;;;;;10461028;28;20048;-77
2022/04/19 02:29:18;;;;;;;5.45;4.68;;;;;;;;;;10439952;28;20075;-77
2022/04/19 02:34:22;;;;;;;8.18;6.07;;;;;;;;;;10457042;28;20053;-77
2022/04/19 02:39:23;;;;;;;5.90;5.18;;;;;;;;;;10467439;28;20060;-81
2022/04/19 02:44:26;;;;;;;6.90;5.95;;;;;;;;;;10497474;28;21452;-80
2022/04/19 02:49:41;;;;;;;6.57;5.80;;;;;;;;;;10530145;28;20092;-80
2022/04/19 02:54:48;;;;;;;6.82;5.13;;;;;;;;;;10490064;28;20055;-80
2022/04/19 02:59:50;;;;;;;6.07;5.38;;;;;;;;;;10500212;28;20098;-80
2022/04/19 03:04:52;;;;;;;7.82;5.88;;;;;;;;;;10477451;28;20056;-80
2022/04/19 03:09:53;;;;;;;5.93;5.03;;;;;;;;;;10488778;28;20108;-81
2022/04/19 03:14:53;;;;;;;6.50;5.50;;;;;;;;;;10446034;28;20040;-79
2022/04/19 03:19:55;;;;;;;6.78;5.03;;;;;;;;;;10487695;28;20278;-77
2022/04/19 03:30:14;;;;;;;5.97;4.50;;;;;;;;;;10487151;28;20390;-79
2022/04/19 03:35:19;;;;;;;8.45;5.53;;;;;;;;;;10490718;28;20037;-79
2022/04/19 03:40:31;;;;;;;9.13;5.72;;;;;;;;;;10445855;28;20047;-78
2022/04/19 03:45:33;;;;;;;8.45;5.65;;;;;;;;;;10491052;28;20041;-79
2022/04/19 03:50:35;;;;;;;8.10;5.97;;;;;;;;;;10477204;28;20112;-79
2022/04/19 03:55:35;;;;;;;6.80;5.05;;;;;;;;;;10489792;28;20044;-80
2022/04/19 04:00:44;;;;;;;6.22;4.75;;;;;;;;;;10469221;28;20167;-80
2022/04/19 04:05:46;;;;;;;6.20;5.38;;;;;;;;;;10497684;28;20025;-82
2022/04/19 04:10:47;;;;;;;7.97;6.03;;;;;;;;;;10507750;28;20135;-78
2022/04/19 04:15:48;;;;;;;8.43;5.93;;;;;;;;;;10485530;28;20067;-80
2022/04/19 04:20:49;;;;;;;8.23;6.07;;;;;;;;;;10469295;28;20033;-79
2022/04/19 04:25:54;;;;;;;7.63;6.63;;;;;;;;;;10485451;28;20040;-80
2022/04/19 04:30:56;;;;;;;8.27;6.40;;;;;;;;;;10466546;28;20044;-79
2022/04/19 04:35:58;;;;;;;7.40;5.67;;;;;;;;;;10449526;28;20143;-79
2022/04/19 04:40:59;;;;;;;8.37;5.40;;;;;;;;;;10479706;28;20697;-79
2022/04/19 04:51:20;;;;;;;9.77;5.93;;;;;;;;;;10507288;28;20064;-82
2022/04/19 04:56:23;;;;;;;7.97;5.93;;;;;;;;;;10498459;28;20075;-81
2022/04/19 05:01:25;;;;;;;8.15;6.13;;;;;;;;;;10494346;28;20104;-80
2022/04/19 05:06:26;;;;;;;10.10;6.28;;;;;;;;;;10493705;28;20041;-79
2022/04/19 05:11:28;;;;;;;9.70;6.15;;;;;;;;;;10483502;28;20068;-80
2022/04/19 05:16:29;;;;;;;9.68;6.38;;;;;;;;;;10518702;28;20034;-78
2022/04/19 05:21:32;;;;;;;10.02;5.75;;;;;;;;;;10474785;28;20036;-79
2022/04/19 05:26:33;;;;;;;11.88;6.85;;;;;;;;;;10480125;28;20104;-80
2022/04/19 05:31:35;;;;;;;9.40;6.50;;;;;;;;;;10469823;28;20372;-77
2022/04/19 05:36:37;;;;;;;9.10;6.15;;;;;;;;;;10509487;28;20045;-80
2022/04/19 05:41:39;;;;;;;8.02;5.97;;;;;;;;;;10471524;28;20325;-79
2022/04/19 05:46:41;;;;;;;8.20;5.57;;;;;;;;;;10469385;28;20055;-81
2022/04/19 05:51:42;;;;;;;8.13;6.35;;;;;;;;;;10482624;28;20188;-81
2022/04/19 05:56:44;;;;;;;8.05;6.50;;;;;;;;;;10468800;28;20114;-81
2022/04/19 06:07:06;;;;;;;9.85;5.90;;;;;;;;;;10479104;28;20028;-79
2022/04/19 06:12:30;;;;;;;9.43;6.10;;;;;;;;;;10503580;28;20483;-82
2022/04/19 06:17:38;;;;;;;7.50;6.30;;;;;;;;;;10503711;28;20028;-80
2022/04/19 06:22:50;;;;;;;7.82;5.80;;;;;;;;;;10475412;28;20047;-79
2022/04/19 06:27:57;;;;;;;7.30;5.88;;;;;;;;;;10463465;28;20499;-78
2022/04/19 06:33:07;;;;;;;7.32;5.82;;;;;;;;;;10456222;28;20048;-79
2022/04/19 06:38:12;;;;;;;6.43;5.72;;;;;;;;;;10454585;28;20399;-80
2022/04/19 06:43:13;;;;;;;7.95;5.82;;;;;;;;;;10449734;28;20033;-78
2022/04/19 06:48:31;;;;;;;7.18;5.90;;;;;;;;;;10489601;28;20924;-78
2022/04/19 06:53:32;;;;;;;6.10;4.85;;;;;;;;;;10488268;28;20044;-78
2022/04/19 06:59:08;;;;;;;8.15;5.05;;;;;;;;;;10484367;28;20134;-78
2022/04/19 07:04:10;;;;;;;5.75;5.13;;;;;;;;;;10487557;28;20037;-78
2022/04/19 07:09:21;;;;;;;6.32;5.07;;;;;;;;;;10477085;28;20314;-78
2022/04/19 07:14:31;;;;;;;6.40;5.00;;;;;;;;;;10482320;28;20091;-79
2022/04/19 07:30:21;;;;;;;;;;;;;;;;;;10482215;28;20068;-79
2022/04/19 07:35:22;;;;;;;6.28;4.80;;;;;;;;;;10481793;28;19993;-84
2022/04/19 07:40:25;;;;;;;6.88;4.93;;;;;;;;;;10470283;28;20115;-78
2022/04/19 07:45:28;;;;;;;7.07;4.95;;;;;;;;;;10519156;28;20028;-79
2022/04/19 07:50:53;;;;;;;6.72;5.18;;;;;;;;;;10496502;28;20048;-82
2022/04/19 07:55:57;;;;;;;11.68;8.50;;;;;;;;;;10490338;28;20481;-79
2022/04/19 08:01:02;;;;;;;5.03;4.20;;;;;;;;;;10509916;28;20064;-85
2022/04/19 08:06:12;;;;;;;4.88;4.25;;;;;;;;;;10494884;28;20033;-78
2022/04/19 08:11:13;;;;;;;5.50;4.55;;;;;;;;;;10458479;28;20047;-79
2022/04/19 08:16:16;;;;;;;5.27;3.87;;;;;;;;;;10447734;28;20047;-81
2022/04/19 08:21:17;;;;;;;8.00;5.07;;;;;;;;;;10458624;28;20292;-77
2022/04/19 08:26:19;;;;;;;7.27;4.97;;;;;;;;;;10471146;28;20048;-77
2022/04/19 08:31:20;;;;;;;6.30;4.47;;;;;;;;;;10435547;28;20279;-76
2022/04/19 08:36:23;;;;;;;8.60;5.18;;;;;;;;;;10477191;28;20068;-80
2022/04/19 08:41:27;;;;;;;7.60;4.57;;;;;;;;;;10483336;28;20039;-76
2022/04/19 08:46:30;;;;;;;7.03;4.55;;;;;;;;;;10466327;28;20063;-76
2022/04/19 08:51:36;;;;;;;5.07;4.25;;;;;;;;;;10461260;28;20419;-78
2022/04/19 09:01:59;;;;;;;5.60;4.50;;;;;;;;;;10466941;28;20047;-77
2022/04/19 09:07:04;;;;;;;4.95;3.55;;;;;;;;;;10499812;28;20052;-78
2022/04/19 09:12:12;;;;;;;4.78;3.33;;;;;;;;;;10513214;28;20040;-78
2022/04/19 09:17:13;;;;;;;4.22;3.50;;;;;;;;;;10479783;28;21417;-77
2022/04/19 09:22:24;;;;;;;4.50;3.13;;;;;;;;;;10483209;28;20068;-76
2022/04/19 09:27:43;;;;;;;3.50;3.00;;;;;;;;;;10491559;28;20516;-77
2022/04/19 09:33:01;;;;;;;4.68;3.38;;;;;;;;;;10459947;28;20482;-76
2022/04/19 09:38:03;;;;;;;3.40;2.85;;;;;;;;;;10468796;28;20076;-77
2022/04/19 09:43:13;;;;;;;5.23;3.27;;;;;;;;;;10467152;28;20048;-77
2022/04/19 09:48:19;;;;;;;5.03;3.58;;;;;;;;;;10471726;28;20400;-77
2022/04/19 09:53:21;;;;;;;3.90;3.25;;;;;;;;;;10490022;28;20037;-76
2022/04/19 09:58:24;;;;;;;3.97;2.88;;;;;;;;;;10470233;28;20055;-76
2022/04/19 10:08:51;;;;;;;3.25;2.70;;;;;;;;;;10512653;28;20071;-76
2022/04/19 10:13:54;;;;;;;5.85;2.72;;;;;;;;;;10502300;28;20048;-76
2022/04/19 10:18:56;;;;;;;2.92;2.22;;;;;;;;;;10485929;28;20127;-77
2022/04/19 10:24:11;;;;;;;4.88;2.85;;;;;;;;;;10518056;28;20189;-76
2022/04/19 10:29:18;;;;;;;3.72;2.70;;;;;;;;;;10525319;28;20092;-77
2022/04/19 10:34:25;;;;;;;3.17;2.40;;;;;;;;;;10520882;28;20034;-77
2022/04/19 10:39:30;;;;;;;3.53;2.60;;;;;;;;;;10502350;28;20044;-79
2022/04/19 10:44:41;;;;;;;3.30;2.83;;;;;;;;;;10515612;28;20040;-77
2022/04/19 10:50:00;;;;;;;13.52;3.08;;;;;;;;;;10524406;28;20058;-77
2022/04/19 10:55:06;;;;;;;3.17;2.70;;;;;;;;;;10526155;28;20052;-77
2022/04/19 11:00:30;;;;;;;3.25;2.88;;;;;;;;;;10529641;28;20066;-78
2022/04/19 11:05:34;;;;;;;2.90;2.53;;;;;;;;;;10517350;28;20045;-76
2022/04/19 11:10:38;;;;;;;2.83;2.40;;;;;;;;;;10521160;28;20057;-77
2022/04/19 11:15:42;;;;;;;2.30;2.10;;;;;;;;;;10523394;28;20063;-76
2022/04/19 11:20:46;;;;;;;2.70;2.40;;;;;;;;;;10489229;28;20148;-76
2022/04/19 11:25:47;;;;;;;2.90;2.10;;;;;;;;;;10488598;28;20044;-76
2022/04/19 11:30:56;;;;;;;2.58;2.35;;;;;;;;;;10486929;28;20058;-77
2022/04/19 11:36:03;;;;;;;2.53;1.90;;;;;;;;;;10446535;28;20045;-77
2022/04/19 11:51:47;;;;;;;1.98;1.70;;;;;;;;;;10482849;28;20067;-75
2022/04/19 11:57:06;;;;;;;2.20;1.48;;;;;;;;;;10459421;28;20049;-76
2022/04/19 12:02:19;;;;;;;3.15;1.92;;;;;;;;;;10484065;28;20036;-74
2022/04/19 12:07:24;;;;;;;2.03;1.80;;;;;;;;;;10479702;28;20051;-74
2022/04/19 12:12:28;;;;;;;2.47;2.10;;;;;;;;;;10467496;28;20090;-75
2022/04/19 12:17:44;;;;;;;1.33;1.13;;;;;;;;;;10478256;28;20036;-74
2022/04/19 12:22:48;;;;;;;2.33;1.30;;;;;;;;;;10471700;28;20043;-74
2022/04/19 12:27:53;;;;;;;1.88;1.23;;;;;;;;;;10473761;28;20059;-74
2022/04/19 12:33:01;;;;;;;1.90;1.42;;;;;;;;;;10483480;28;20036;-74
2022/04/19 12:38:18;;;;;;;1.20;1.10;;;;;;;;;;10472233;28;20056;-75
2022/04/19 12:43:19;;;;;;;1.75;1.20;;;;;;;;;;10467633;28;20144;-72
2022/04/19 12:48:23;;;;;;;2.55;1.42;;;;;;;;;;10484804;28;20068;-72
2022/04/19 12:53:24;;;;;;;2.40;1.10;;;;;;;;;;10480796;28;20581;-76
2022/04/19 12:58:25;;;;;;;3.17;1.50;;;;;;;;;;10465738;28;20118;-75
2022/04/19 13:03:26;;;;;;;2.20;1.27;;;;;;;;;;10448881;28;20534;-75
2022/04/19 13:13:52;;;;;;;1.25;1.15;;;;;;;;;;10464688;28;20583;-74
2022/04/19 13:18:56;;;;;;;1.45;1.35;;;;;;;;;;10471849;28;21326;-74
2022/04/19 13:23:57;;;;;;;3.55;1.20;;;;;;;;;;10468977;28;20049;-74
2022/04/19 13:29:01;;;;;;;2.25;1.10;;;;;;;;;;10474804;28;20127;-75
2022/04/19 13:34:06;;;;;;;2.55;1.27;;;;;;;;;;10454638;28;20079;-75
2022/04/19 13:39:11;;;;;;;1.88;1.42;;;;;;;;;;10443166;28;20156;-74
2022/04/19 13:44:14;;;;;;;1.40;1.30;;;;;;;;;;10475573;28;21250;-74
2022/04/19 13:49:19;;;;;;;2.37;1.40;;;;;;;;;;10482335;28;20059;-75
2022/04/19 13:54:29;;;;;;;1.77;1.33;;;;;;;;;;10480276;28;20282;-76
2022/04/19 13:59:33;;;;;;;5.32;1.27;;;;;;;;;;10454990;28;20109;-75
2022/04/19 14:04:38;;;;;;;2.17;1.30;;;;;;;;;;10450522;28;20126;-74
2022/04/19 14:09:39;;;;;;;1.30;1.20;;;;;;;;;;10470914;28;20055;-77
2022/04/19 14:14:39;;;;;;;1.88;1.30;;;;;;;;;;10466481;28;20470;-76
2022/04/19 14:19:40;;;;;;;1.30;1.20;;;;;;;;;;10474089;28;20036;-76
2022/04/19 14:24:43;;;;;;;2.23;1.80;;;;;;;;;;10501551;28;20041;-76
2022/04/19 14:35:03;;;;;;;2.30;1.80;;;;;;;;;;10484014;28;20036;-77
2022/04/19 14:40:07;;;;;;;1.60;1.20;;;;;;;;;;10459431;28;20369;-77
2022/04/19 14:45:10;;;;;;;1.65;1.45;;;;;;;;;;10469906;28;20040;-79
2022/04/19 14:50:10;;;;;;;1.73;1.35;;;;;;;;;;10475315;28;20162;-77
2022/04/19 14:55:13;;;;;;;2.03;1.17;;;;;;;;;;10466959;28;20448;-76
2022/04/19 15:00:13;;;;;;;;;;;;;;;;;;10490775;28;20453;-77
2022/04/19 15:05:16;;;;;;;2.08;1.60;;;;;;;;;;10497086;28;19916;-78
2022/04/19 15:10:17;;;;;;;1.73;1.25;;;;;;;;;;10491430;28;20479;-78
2022/04/19 15:15:19;;;;;;;2.58;1.10;;;;;;;;;;10487460;28;20033;-78
2022/04/19 15:20:19;;;;;;;4.93;1.50;;;;;;;;;;10454620;28;20068;-77
2022/04/19 15:25:21;;;;;;;1.98;1.30;;;;;;;;;;10452612;28;20076;-80
2022/04/19 15:30:23;;;;;;;3.10;1.10;;;;;;;;;;10445430;28;20561;-77
2022/04/19 15:35:24;;;;;;;1.30;1.20;;;;;;;;;;10474394;28;20040;-79
2022/04/19 15:40:25;;;;;;;5.22;1.77;;;;;;;;;;10514342;28;20278;-74
2022/04/19 15:45:26;;;;;;;3.10;1.40;;;;;;;;;;10495989;28;20531;-77
2022/04/19 15:50:29;;;;;;;2.35;1.33;;;;;;;;;;10486525;28;20783;-77
2022/04/19 15:55:30;;;;;;;2.35;1.77;;;;;;;;;;10457463;28;20051;-76
2022/04/19 16:00:31;;;;;;;2.20;1.95;;;;;;;;;;10490965;28;20045;-77
2022/04/19 16:05:32;;;;;;;3.78;2.55;;;;;;;;;;10503034;28;20055;-77
2022/04/19 16:10:34;;;;;;;2.83;2.53;;;;;;;;;;10488943;28;20059;-77
2022/04/19 16:15:34;;;;;;;3.05;2.65;;;;;;;;;;10488001;28;20720;-77
2022/04/19 16:25:59;;;;;;;3.42;3.13;;;;;;;;;;10481870;28;20630;-78
2022/04/19 16:31:03;;;;;;;4.30;3.35;;;;;;;;;;10480342;28;20059;-77
2022/04/19 16:36:19;;;;;;;3.65;3.20;;;;;;;;;;10492800;28;20463;-78
2022/04/19 16:41:20;;;;;;;6.00;3.67;;;;;;;;;;10482473;28;20040;-78
2022/04/19 16:46:25;;;;;;;3.45;3.00;;;;;;;;;;10467976;28;20049;-77
2022/04/19 16:51:27;;;;;;;3.35;2.47;;;;;;;;;;10476949;28;20051;-77
2022/04/19 16:56:30;;;;;;;3.10;2.40;;;;;;;;;;10485280;28;20036;-79
2022/04/19 17:01:30;;;;;;;2.83;2.47;;;;;;;;;;10477253;28;20040;-78
2022/04/19 17:06:37;;;;;;;3.50;2.58;;;;;;;;;;10471595;28;20037;-79
2022/04/19 17:11:38;;;;;;;3.42;2.55;;;;;;;;;;10490754;28;20068;-78
2022/04/19 17:16:39;;;;;;;3.42;2.40;;;;;;;;;;10515959;28;20051;-79
2022/04/19 17:21:41;;;;;;;3.95;2.00;;;;;;;;;;10498546;28;20052;-77
2022/04/19 17:26:45;;;;;;;3.33;2.27;;;;;;;;;;10475364;28;20049;-78
2022/04/19 17:31:46;;;;;;;2.80;1.77;;;;;;;;;;10477507;28;20138;-79
2022/04/19 17:36:57;;;;;;;2.28;1.90;;;;;;;;;;10478886;28;20040;-76
2022/04/19 17:42:01;;;;;;;2.35;2.15;;;;;;;;;;10510754;28;20044;-78
2022/04/19 17:47:02;;;;;;;3.70;2.05;;;;;;;;;;10475316;28;20086;-77
2022/04/19 17:57:21;;;;;;;2.55;2.08;;;;;;;;;;10498220;28;20044;-77
2022/04/19 18:02:23;;;;;;;2.70;2.10;;;;;;;;;;10513606;28;20105;-76
2022/04/19 18:07:24;;;;;;;3.42;2.10;;;;;;;;;;10504090;28;20103;-77
2022/04/19 18:12:32;;;;;;;2.65;2.33;;;;;;;;;;10509247;28;20049;-78
2022/04/19 18:17:35;;;;;;;3.65;2.85;;;;;;;;;;10518886;28;20048;-78
2022/04/19 18:27:57;;;;;;;4.45;2.80;;;;;;;;;;10499748;28;20040;-77
2022/04/19 18:32:58;;;;;;;3.13;2.67;;;;;;;;;;10483741;28;20033;-77
2022/04/19 18:37:59;;;;;;;3.53;2.78;;;;;;;;;;10455307;28;20048;-77
2022/04/19 18:43:07;;;;;;;4.95;2.80;;;;;;;;;;10433780;28;20040;-77
2022/04/19 18:48:07;;;;;;;2.80;2.40;;;;;;;;;;10496909;28;20036;-77
2022/04/19 18:53:10;;;;;;;4.15;2.35;;;;;;;;;;10482350;28;20036;-76
2022/04/19 18:58:12;;;;;;;12.43;8.00;;;;;;;;;;10489352;28;20059;-76
2022/04/19 19:03:16;;;;;;;2.55;2.10;;;;;;;;;;10465663;28;20046;-74
2022/04/19 19:08:17;;;;;;;3.60;2.20;;;;;;;;;;10456493;28;20064;-75
2022/04/19 19:13:17;;;;;;;2.80;2.08;;;;;;;;;;10468224;28;20040;-75
2022/04/19 19:18:18;;;;;;;3.77;2.10;;;;;;;;;;10489054;28;20116;-76
2022/04/19 19:23:18;;;;;;;5.03;2.70;;;;;;;;;;10484578;28;20263;-75
2022/04/19 19:28:18;;;;;;;4.00;2.93;;;;;;;;;;10514607;28;20043;-76
2022/04/19 19:33:22;;;;;;;2.78;1.80;;;;;;;;;;10481543;28;20691;-76
2022/04/19 19:38:22;;;;;;;4.80;2.85;;;;;;;;;;10507591;28;20043;-74
2022/04/19 19:43:25;;;;;;;3.13;1.95;;;;;;;;;;10519071;28;20063;-76
2022/04/19 19:48:25;;;;;;;3.28;2.10;;;;;;;;;;10519015;28;20033;-76
2022/04/19 19:53:28;;;;;;;3.38;2.17;;;;;;;;;;10535419;28;20071;-75
2022/04/19 19:58:29;;;;;;;1.83;1.73;;;;;;;;;;10500147;28;20087;-76
2022/04/19 20:03:32;;;;;;;3.25;2.13;;;;;;;;;;10507981;28;20021;-74
2022/04/19 20:08:34;;;;;;;3.17;2.20;;;;;;;;;;10519640;28;20055;-75
2022/04/19 20:13:35;;;;;;;2.83;1.95;;;;;;;;;;10478036;28;20062;-75
2022/04/19 20:18:35;;;;;;;7.07;3.58;;;;;;;;;;10452511;28;20132;-77
2022/04/19 20:23:36;;;;;;;2.67;2.20;;;;;;;;;;10451679;28;20072;-77
2022/04/19 20:28:37;;;;;;;2.63;2.00;;;;;;;;;;10447938;28;20454;-77
2022/04/19 20:33:38;;;;;;;2.83;2.25;;;;;;;;;;10462766;28;20115;-77
2022/04/19 20:38:38;;;;;;;2.65;2.20;;;;;;;;;;10463534;28;20111;-77
2022/04/19 20:43:38;;;;;;;2.58;1.92;;;;;;;;;;10465383;28;20850;-77
2022/04/19 20:54:03;;;;;;;2.92;1.75;;;;;;;;;;10456174;28;20040;-75
2022/04/19 20:59:03;;;;;;;4.43;2.00;;;;;;;;;;10500745;28;20028;-76
2022/04/19 21:04:05;;;;;;;4.27;2.23;;;;;;;;;;10476830;28;20067;-76
2022/04/19 21:09:08;;;;;;;3.70;2.13;;;;;;;;;;10430995;28;20291;-75
2022/04/19 21:14:08;;;;;;;3.47;2.13;;;;;;;;;;10474260;28;20106;-74
2022/04/19 21:19:08;;;;;;;2.77;2.47;;;;;;;;;;10449400;28;20275;-76
2022/04/19 21:24:09;;;;;;;3.22;2.25;;;;;;;;;;10493185;28;20290;-77
2022/04/19 21:29:09;;;;;;;2.63;2.22;;;;;;;;;;10476725;28;20044;-77
2022/04/19 21:34:14;;;;;;;3.30;2.80;;;;;;;;;;10482431;28;20059;-77
2022/04/19 21:39:15;;;;;;;4.78;2.60;;;;;;;;;;10484201;28;20068;-76
2022/04/19 21:44:18;;;;;;;4.70;2.60;;;;;;;;;;10475040;28;20035;-77
2022/04/19 21:49:19;;;;;;;4.03;2.90;;;;;;;;;;10467992;28;20045;-76
2022/04/19 21:54:20;;;;;;;4.57;2.30;;;;;;;;;;10482983;28;20056;-74
2022/04/19 21:59:23;;;;;;;2.42;2.03;;;;;;;;;;10481472;28;20275;-76
2022/04/19 22:04:23;;;;;;;2.75;1.75;;;;;;;;;;10485802;28;20044;-75
2022/04/19 22:09:24;;;;;;;3.30;2.30;;;;;;;;;;10466051;28;20100;-74
2022/04/19 22:14:28;;;;;;;3.85;2.65;;;;;;;;;;10469875;28;20286;-76
2022/04/19 22:19:33;;;;;;;1.90;1.80;;;;;;;;;;10495432;28;20067;-75
2022/04/19 22:24:39;;;;;;;3.15;2.45;;;;;;;;;;10492918;28;20056;-74
2022/04/19 22:29:42;;;;;;;3.35;2.50;;;;;;;;;;10475700;28;20371;-75
2022/04/19 22:34:43;;;;;;;4.35;2.75;;;;;;;;;;10475256;28;20055;-75
2022/04/19 22:39:45;;;;;;;3.33;2.55;;;;;;;;;;10501355;28;20559;-76
2022/04/19 22:44:46;;;;;;;3.85;2.85;;;;;;;;;;10452732;28;20039;-75
2022/04/19 22:49:47;;;;;;;3.97;2.47;;;;;;;;;;10461349;28;20052;-74
2022/04/19 22:54:48;;;;;;;3.25;2.70;;;;;;;;;;10472725;28;20047;-74
2022/04/19 22:59:49;;;;;;;3.42;2.97;;;;;;;;;;10500756;28;20049;-74
2022/04/19 23:04:50;;;;;;;4.38;2.65;;;;;;;;;;10444164;28;20048;-75
2022/04/19 23:09:51;;;;;;;2.85;2.65;;;;;;;;;;10462367;28;20079;-75
2022/04/19 23:14:52;;;;;;;2.70;2.50;;;;;;;;;;10451333;28;20093;-75
2022/04/19 23:19:55;;;;;;;3.92;3.00;;;;;;;;;;10458002;28;20041;-76
2022/04/19 23:24:58;;;;;;;3.42;3.00;;;;;;;;;;10476856;28;20465;-75
2022/04/19 23:29:59;;;;;;;3.22;2.75;;;;;;;;;;10470154;28;20048;-75
2022/04/19 23:35:00;;;;;;;4.88;2.80;;;;;;;;;;10476528;28;20041;-75
2022/04/19 23:40:01;;;;;;;2.67;2.20;;;;;;;;;;10462568;28;20200;-76
2022/04/19 23:45:03;;;;;;;3.55;2.90;;;;;;;;;;10486249;28;20294;-76
2022/04/19 23:50:06;;;;;;;3.13;2.77;;;;;;;;;;10490531;28;20131;-75
2022/04/19 23:55:07;;;;;;;3.03;2.55;;;;;;;;;;10518008;28;20073;-75
